Aeroporto :
LOGIN :

Iscrizione | Disclaimer

   EN    FR    IT 

 










Sommario :    VFR   VFR Marginale   IFR   IFR Intensivo   IFR Molto Intensivo
Visibilità : 
Base nubi : 
>= 8 km
>= 3000ft
5 / 8 km
1000 / 3000 ft
1500m / 5 km
500 / 1000 ft
800 / 1500m
200 / 500 ft
< 800m
< 200 ft
Simboli :   Temporali  Nebbia  Neve Forte  Precipitazioni Forti  Vento > 20 kt
SIGMETs :   Varie  Temporali  Ghiacco  Turbolenza  Onda orograficha  Ceneri Vulcaniche







- Altitudine del aeroporto : 1300 ft
- Codice IATA : LIG
- Carte del aeroporto


LFBL - Limoges

ULTIMO METAR :
  • 120400Z AUTO 06004KT CAVOK 01/M01 Q1019 NOSIG

METARs OBSOLETI :
  • 120330Z AUTO 07005KT CAVOK 01/M01 Q1019 NOSIG
  • 120300Z AUTO 07003KT CAVOK 02/M01 Q1019 NOSIG
  • 120230Z AUTO 07004KT CAVOK 02/M00 Q1020 NOSIG
  • 120200Z AUTO 06003KT CAVOK 02/M01 Q1020 NOSIG
  • 120130Z AUTO 06003KT CAVOK 02/M01 Q1020 NOSIG
  • 120100Z AUTO 05004KT CAVOK 02/M00 Q1020 NOSIG

TAF TAF LFBL
Valido dal 12 a 00 ore il 13 a 00 ore UTC


112300Z 1200/1224 06005KT CAVOK
BECMG 1208/1210 8000 -RA SCT005 BKN025
BECMG 1210/1212 BKN005
TEMPO 1212/1214 4000 RA
ATIS : +33 5 55 48 40 37
Nessun NOTAM noto per questo aeroporto.
1 SIGMET conosciuto per la FIR Bordeaux (LFBB) :
 
Turbolenza severa
LFBB SIGMET 1 VALID 120400/120800 LFPW
LFBB BORDEAUX FIR/UIR SEV TURB FCST NW OF LINE N4545 W00145 - N4630 W00045 FL160/260 MOV SE 30KT NC=



MetMap, La meteo Aeronautica in un colpo d'occhio ! - Copyright ORBIFLY Dicembre 2007 - Disclaimer

ORBIFLY MET'MAP TEAM :

Programmazione e sviluppo : Alexandra Zaïnal
Concezione e sviluppo : Baudouin d'Aumeries
Co-Programmazione e sviluppo : Marc-Olivier Méhu
Supporto tecnico e logistico : Manuel Goepfert
Aiuto per la traduzione : Arnaldo La Scala

Contatto : metmap@orbifly.com




FONTI E CREDITI :

   NOAA